sensor_id;sensor_type;location;lat;lon;timestamp;temperature;humidity
11204;DHT22;5659;49.408;11.116;2022-12-20T00:01:08;0.70;99.90
11204;DHT22;5659;49.408;11.116;2022-12-20T00:03:34;0.10;99.90
11204;DHT22;5659;49.408;11.116;2022-12-20T00:05:59;0.20;99.90
11204;DHT22;5659;49.408;11.116;2022-12-20T00:08:25;0.20;99.90
11204;DHT22;5659;49.408;11.116;2022-12-20T00:10:50;0.20;99.90
11204;DHT22;5659;49.408;11.116;2022-12-20T00:13:16;0.30;99.90
11204;DHT22;5659;49.408;11.116;2022-12-20T00:15:41;0.10;99.90
11204;DHT22;5659;49.408;11.116;2022-12-20T00:18:07;0.10;99.90
11204;DHT22;5659;49.408;11.116;2022-12-20T00:20:33;1.00;99.90
11204;DHT22;5659;49.408;11.116;2022-12-20T00:22:59;0.10;99.90
11204;DHT22;5659;49.408;11.116;2022-12-20T00:25:25;0.00;99.90
11204;DHT22;5659;49.408;11.116;2022-12-20T00:27:51;0.10;99.90
11204;DHT22;5659;49.408;11.116;2022-12-20T00:30:17;0.10;99.90
11204;DHT22;5659;49.408;11.116;2022-12-20T00:32:43;0.10;99.90
11204;DHT22;5659;49.408;11.116;2022-12-20T00:35:09;0.20;99.90
11204;DHT22;5659;49.408;11.116;2022-12-20T00:37:35;0.00;99.90
11204;DHT22;5659;49.408;11.116;2022-12-20T00:40:01;-0.10;99.90
11204;DHT22;5659;49.408;11.116;2022-12-20T00:42:27;-0.10;99.90
11204;DHT22;5659;49.408;11.116;2022-12-20T00:44:53;-0.10;99.90
11204;DHT22;5659;49.408;11.116;2022-12-20T00:47:18;-0.10;99.90
11204;DHT22;5659;49.408;11.116;2022-12-20T00:49:44;0.00;99.90
11204;DHT22;5659;49.408;11.116;2022-12-20T00:52:09;0.00;99.90
11204;DHT22;5659;49.408;11.116;2022-12-20T00:54:35;0.10;99.90
11204;DHT22;5659;49.408;11.116;2022-12-20T00:57:00;0.20;99.90
11204;DHT22;5659;49.408;11.116;2022-12-20T00:59:26;0.20;99.90
11204;DHT22;5659;49.408;11.116;2022-12-20T01:01:51;0.30;99.90
11204;DHT22;5659;49.408;11.116;2022-12-20T01:04:17;0.20;99.90
11204;DHT22;5659;49.408;11.116;2022-12-20T01:06:42;0.10;99.90
11204;DHT22;5659;49.408;11.116;2022-12-20T01:09:10;0.20;99.90
11204;DHT22;5659;49.408;11.116;2022-12-20T01:11:36;0.10;99.90
11204;DHT22;5659;49.408;11.116;2022-12-20T01:14:13;0.20;99.90
11204;DHT22;5659;49.408;11.116;2022-12-20T01:16:41;0.10;99.90
11204;DHT22;5659;49.408;11.116;2022-12-20T01:19:09;0.20;99.90
11204;DHT22;5659;49.408;11.116;2022-12-20T01:21:34;0.20;99.90
11204;DHT22;5659;49.408;11.116;2022-12-20T01:24:00;0.20;99.90
11204;DHT22;5659;49.408;11.116;2022-12-20T01:26:27;0.20;99.90
11204;DHT22;5659;49.408;11.116;2022-12-20T01:28:56;0.30;99.90
11204;DHT22;5659;49.408;11.116;2022-12-20T01:31:22;0.20;99.90
11204;DHT22;5659;49.408;11.116;2022-12-20T01:33:49;0.20;99.90
11204;DHT22;5659;49.408;11.116;2022-12-20T01:36:19;0.20;99.90
11204;DHT22;5659;49.408;11.116;2022-12-20T01:38:45;0.20;99.90
11204;DHT22;5659;49.408;11.116;2022-12-20T01:41:17;0.20;99.90
11204;DHT22;5659;49.408;11.116;2022-12-20T01:43:52;0.10;99.90
11204;DHT22;5659;49.408;11.116;2022-12-20T01:46:20;0.20;99.90
11204;DHT22;5659;49.408;11.116;2022-12-20T01:51:31;0.20;99.90
11204;DHT22;5659;49.408;11.116;2022-12-20T01:54:11;0.10;99.90
11204;DHT22;5659;49.408;11.116;2022-12-20T01:56:38;0.10;99.90
11204;DHT22;5659;49.408;11.116;2022-12-20T01:59:06;0.40;99.90
11204;DHT22;5659;49.408;11.116;2022-12-20T02:01:33;0.10;99.90
11204;DHT22;5659;49.408;11.116;2022-12-20T02:03:58;0.10;99.90
11204;DHT22;5659;49.408;11.116;2022-12-20T02:06:25;0.10;99.90
11204;DHT22;5659;49.408;11.116;2022-12-20T02:08:53;0.00;99.90
11204;DHT22;5659;49.408;11.116;2022-12-20T02:25:45;0.00;99.90
11204;DHT22;5659;49.408;11.116;2022-12-20T02:28:38;-0.10;99.90
11204;DHT22;5659;49.408;11.116;2022-12-20T02:31:10;0.00;99.90
11204;DHT22;5659;49.408;11.116;2022-12-20T02:33:38;0.00;99.90
11204;DHT22;5659;49.408;11.116;2022-12-20T02:36:06;0.00;99.90
11204;DHT22;5659;49.408;11.116;2022-12-20T02:38:36;0.10;99.90
11204;DHT22;5659;49.408;11.116;2022-12-20T02:41:22;0.60;99.90
11204;DHT22;5659;49.408;11.116;2022-12-20T02:43:54;0.00;99.90
11204;DHT22;5659;49.408;11.116;2022-12-20T02:46:39;0.10;99.90
11204;DHT22;5659;49.408;11.116;2022-12-20T02:49:10;0.10;99.90
11204;DHT22;5659;49.408;11.116;2022-12-20T02:51:38;0.20;99.90
11204;DHT22;5659;49.408;11.116;2022-12-20T02:54:05;0.20;99.90
11204;DHT22;5659;49.408;11.116;2022-12-20T02:59:17;0.30;99.90
11204;DHT22;5659;49.408;11.116;2022-12-20T03:01:47;0.30;99.90
11204;DHT22;5659;49.408;11.116;2022-12-20T03:04:15;0.40;99.90
11204;DHT22;5659;49.408;11.116;2022-12-20T03:07:08;0.30;99.90
11204;DHT22;5659;49.408;11.116;2022-12-20T03:09:38;0.30;99.90
11204;DHT22;5659;49.408;11.116;2022-12-20T03:12:05;0.20;99.90
11204;DHT22;5659;49.408;11.116;2022-12-20T03:14:31;0.30;99.90
11204;DHT22;5659;49.408;11.116;2022-12-20T03:16:57;0.20;99.90
11204;DHT22;5659;49.408;11.116;2022-12-20T03:19:23;0.20;99.90
11204;DHT22;5659;49.408;11.116;2022-12-20T03:21:49;0.10;99.90
11204;DHT22;5659;49.408;11.116;2022-12-20T03:24:14;0.20;99.90
11204;DHT22;5659;49.408;11.116;2022-12-20T03:26:41;0.20;99.90
11204;DHT22;5659;49.408;11.116;2022-12-20T03:29:06;0.10;99.90
11204;DHT22;5659;49.408;11.116;2022-12-20T03:31:32;0.10;99.90
11204;DHT22;5659;49.408;11.116;2022-12-20T03:33:58;0.10;99.90
11204;DHT22;5659;49.408;11.116;2022-12-20T03:36:24;0.10;99.90
11204;DHT22;5659;49.408;11.116;2022-12-20T03:38:53;0.20;99.90
11204;DHT22;5659;49.408;11.116;2022-12-20T03:41:20;0.10;99.90
11204;DHT22;5659;49.408;11.116;2022-12-20T03:43:47;0.20;99.90
11204;DHT22;5659;49.408;11.116;2022-12-20T03:46:13;0.20;99.90
11204;DHT22;5659;49.408;11.116;2022-12-20T03:48:38;0.20;99.90
11204;DHT22;5659;49.408;11.116;2022-12-20T03:51:04;0.20;99.90
11204;DHT22;5659;49.408;11.116;2022-12-20T03:53:30;0.30;99.90
11204;DHT22;5659;49.408;11.116;2022-12-20T03:55:55;0.20;99.90
11204;DHT22;5659;49.408;11.116;2022-12-20T03:58:21;0.20;99.90
11204;DHT22;5659;49.408;11.116;2022-12-20T04:00:46;0.20;99.90
11204;DHT22;5659;49.408;11.116;2022-12-20T04:03:12;0.20;99.90
11204;DHT22;5659;49.408;11.116;2022-12-20T04:05:38;0.40;99.90
11204;DHT22;5659;49.408;11.116;2022-12-20T04:08:03;0.20;99.90
11204;DHT22;5659;49.408;11.116;2022-12-20T04:10:29;0.20;99.90
11204;DHT22;5659;49.408;11.116;2022-12-20T04:12:55;0.20;99.90
11204;DHT22;5659;49.408;11.116;2022-12-20T04:15:31;0.20;99.90
11204;DHT22;5659;49.408;11.116;2022-12-20T04:17:56;0.20;99.90
11204;DHT22;5659;49.408;11.116;2022-12-20T04:20:22;0.10;99.90
11204;DHT22;5659;49.408;11.116;2022-12-20T04:22:49;0.10;99.90
11204;DHT22;5659;49.408;11.116;2022-12-20T04:25:17;0.10;99.90
11204;DHT22;5659;49.408;11.116;2022-12-20T04:27:43;0.20;99.90
11204;DHT22;5659;49.408;11.116;2022-12-20T04:30:09;0.00;99.90
11204;DHT22;5659;49.408;11.116;2022-12-20T04:32:35;0.10;99.90
11204;DHT22;5659;49.408;11.116;2022-12-20T04:35:01;0.00;99.90
11204;DHT22;5659;49.408;11.116;2022-12-20T04:37:28;0.00;99.90
11204;DHT22;5659;49.408;11.116;2022-12-20T04:39:54;-0.10;99.90
11204;DHT22;5659;49.408;11.116;2022-12-20T04:42:21;0.00;99.90
11204;DHT22;5659;49.408;11.116;2022-12-20T04:44:47;0.10;99.90
11204;DHT22;5659;49.408;11.116;2022-12-20T04:47:12;0.10;99.90
11204;DHT22;5659;49.408;11.116;2022-12-20T04:49:38;0.10;99.90
11204;DHT22;5659;49.408;11.116;2022-12-20T04:52:04;0.10;99.90
11204;DHT22;5659;49.408;11.116;2022-12-20T04:54:48;0.10;99.90
11204;DHT22;5659;49.408;11.116;2022-12-20T04:57:14;0.10;99.90
11204;DHT22;5659;49.408;11.116;2022-12-20T04:59:39;0.10;99.90
11204;DHT22;5659;49.408;11.116;2022-12-20T05:02:05;0.20;99.90
11204;DHT22;5659;49.408;11.116;2022-12-20T05:04:31;0.10;99.90
11204;DHT22;5659;49.408;11.116;2022-12-20T05:06:56;0.20;99.90
11204;DHT22;5659;49.408;11.116;2022-12-20T05:09:22;0.20;99.90
11204;DHT22;5659;49.408;11.116;2022-12-20T05:11:47;0.30;99.90
11204;DHT22;5659;49.408;11.116;2022-12-20T05:14:13;0.30;99.90
11204;DHT22;5659;49.408;11.116;2022-12-20T05:16:38;0.20;99.90
11204;DHT22;5659;49.408;11.116;2022-12-20T05:19:04;0.20;99.90
11204;DHT22;5659;49.408;11.116;2022-12-20T05:21:30;0.10;99.90
11204;DHT22;5659;49.408;11.116;2022-12-20T05:24:14;0.10;99.90
11204;DHT22;5659;49.408;11.116;2022-12-20T05:26:58;0.20;99.90
11204;DHT22;5659;49.408;11.116;2022-12-20T05:29:24;0.20;99.90
11204;DHT22;5659;49.408;11.116;2022-12-20T05:31:50;0.20;99.90
11204;DHT22;5659;49.408;11.116;2022-12-20T05:34:16;0.20;99.90
11204;DHT22;5659;49.408;11.116;2022-12-20T05:36:41;0.30;99.90
11204;DHT22;5659;49.408;11.116;2022-12-20T05:39:07;0.20;99.90
11204;DHT22;5659;49.408;11.116;2022-12-20T05:41:33;0.20;99.90
11204;DHT22;5659;49.408;11.116;2022-12-20T05:43:58;0.30;99.90
11204;DHT22;5659;49.408;11.116;2022-12-20T05:46:24;0.40;99.90
11204;DHT22;5659;49.408;11.116;2022-12-20T05:48:50;0.40;99.90
11204;DHT22;5659;49.408;11.116;2022-12-20T05:51:15;0.40;99.90
11204;DHT22;5659;49.408;11.116;2022-12-20T05:53:41;0.50;99.90
11204;DHT22;5659;49.408;11.116;2022-12-20T05:56:06;0.40;99.90
11204;DHT22;5659;49.408;11.116;2022-12-20T05:58:32;0.50;99.90
11204;DHT22;5659;49.408;11.116;2022-12-20T06:01:03;0.50;99.90
11204;DHT22;5659;49.408;11.116;2022-12-20T06:03:29;0.50;99.90
11204;DHT22;5659;49.408;11.116;2022-12-20T06:05:55;0.60;99.90
11204;DHT22;5659;49.408;11.116;2022-12-20T06:08:20;0.60;99.90
11204;DHT22;5659;49.408;11.116;2022-12-20T06:10:48;0.60;99.90
11204;DHT22;5659;49.408;11.116;2022-12-20T06:13:14;0.60;99.90
11204;DHT22;5659;49.408;11.116;2022-12-20T06:15:39;0.60;99.90
11204;DHT22;5659;49.408;11.116;2022-12-20T06:18:05;0.60;99.90
11204;DHT22;5659;49.408;11.116;2022-12-20T06:20:32;0.60;99.90
11204;DHT22;5659;49.408;11.116;2022-12-20T06:22:58;0.60;99.90
11204;DHT22;5659;49.408;11.116;2022-12-20T06:25:23;0.50;99.90
11204;DHT22;5659;49.408;11.116;2022-12-20T06:27:49;0.40;99.90
11204;DHT22;5659;49.408;11.116;2022-12-20T06:30:16;0.50;99.90
11204;DHT22;5659;49.408;11.116;2022-12-20T06:32:42;0.70;99.90
11204;DHT22;5659;49.408;11.116;2022-12-20T06:35:08;0.60;99.90
11204;DHT22;5659;49.408;11.116;2022-12-20T06:37:34;0.70;99.90
11204;DHT22;5659;49.408;11.116;2022-12-20T06:40:00;0.70;99.90
11204;DHT22;5659;49.408;11.116;2022-12-20T06:42:26;0.60;99.90
11204;DHT22;5659;49.408;11.116;2022-12-20T06:44:52;0.70;99.90
11204;DHT22;5659;49.408;11.116;2022-12-20T06:47:18;0.60;99.90
11204;DHT22;5659;49.408;11.116;2022-12-20T06:49:43;0.50;99.90
11204;DHT22;5659;49.408;11.116;2022-12-20T06:52:09;0.80;99.90
11204;DHT22;5659;49.408;11.116;2022-12-20T06:54:35;0.70;99.90
11204;DHT22;5659;49.408;11.116;2022-12-20T06:57:00;0.70;99.90
11204;DHT22;5659;49.408;11.116;2022-12-20T06:59:26;1.90;99.90
11204;DHT22;5659;49.408;11.116;2022-12-20T07:01:51;0.80;99.90
11204;DHT22;5659;49.408;11.116;2022-12-20T07:04:17;0.80;99.90
11204;DHT22;5659;49.408;11.116;2022-12-20T07:06:42;0.80;99.90
11204;DHT22;5659;49.408;11.116;2022-12-20T07:09:08;0.70;99.90
11204;DHT22;5659;49.408;11.116;2022-12-20T07:11:34;0.80;99.90
11204;DHT22;5659;49.408;11.116;2022-12-20T07:13:59;0.80;99.90
11204;DHT22;5659;49.408;11.116;2022-12-20T07:16:25;0.80;99.90
11204;DHT22;5659;49.408;11.116;2022-12-20T07:18:52;0.60;99.90
11204;DHT22;5659;49.408;11.116;2022-12-20T07:21:18;0.80;99.90
11204;DHT22;5659;49.408;11.116;2022-12-20T07:23:45;0.90;99.90
11204;DHT22;5659;49.408;11.116;2022-12-20T07:26:11;0.80;99.90
11204;DHT22;5659;49.408;11.116;2022-12-20T07:28:37;0.80;99.90
11204;DHT22;5659;49.408;11.116;2022-12-20T07:31:03;0.90;99.90
11204;DHT22;5659;49.408;11.116;2022-12-20T07:33:29;1.00;99.90
11204;DHT22;5659;49.408;11.116;2022-12-20T07:36:10;0.80;99.90
11204;DHT22;5659;49.408;11.116;2022-12-20T07:38:36;0.90;99.90
11204;DHT22;5659;49.408;11.116;2022-12-20T07:41:15;0.90;99.90
11204;DHT22;5659;49.408;11.116;2022-12-20T07:43:42;1.00;99.90
11204;DHT22;5659;49.408;11.116;2022-12-20T07:46:10;0.90;99.90
11204;DHT22;5659;49.408;11.116;2022-12-20T07:48:37;0.90;99.90
11204;DHT22;5659;49.408;11.116;2022-12-20T07:51:07;0.80;99.90
11204;DHT22;5659;49.408;11.116;2022-12-20T07:53:35;0.90;99.90
11204;DHT22;5659;49.408;11.116;2022-12-20T07:56:04;0.90;99.90
11204;DHT22;5659;49.408;11.116;2022-12-20T07:58:33;1.10;99.90
11204;DHT22;5659;49.408;11.116;2022-12-20T08:01:00;1.10;99.90
11204;DHT22;5659;49.408;11.116;2022-12-20T08:03:34;1.20;99.90
11204;DHT22;5659;49.408;11.116;2022-12-20T08:06:02;1.00;99.90
11204;DHT22;5659;49.408;11.116;2022-12-20T08:08:35;1.30;99.90
11204;DHT22;5659;49.408;11.116;2022-12-20T08:11:03;1.30;99.90
11204;DHT22;5659;49.408;11.116;2022-12-20T08:13:31;1.40;99.90
11204;DHT22;5659;49.408;11.116;2022-12-20T08:15:59;1.30;99.90
11204;DHT22;5659;49.408;11.116;2022-12-20T08:18:25;1.30;99.90
11204;DHT22;5659;49.408;11.116;2022-12-20T08:20:50;1.30;99.90
11204;DHT22;5659;49.408;11.116;2022-12-20T08:23:17;1.40;99.90
11204;DHT22;5659;49.408;11.116;2022-12-20T08:25:43;1.40;99.90
11204;DHT22;5659;49.408;11.116;2022-12-20T08:28:09;1.50;99.90
11204;DHT22;5659;49.408;11.116;2022-12-20T08:30:35;1.50;99.90
11204;DHT22;5659;49.408;11.116;2022-12-20T08:33:01;1.50;99.90
11204;DHT22;5659;49.408;11.116;2022-12-20T08:35:26;1.50;99.90
11204;DHT22;5659;49.408;11.116;2022-12-20T08:37:52;1.60;99.90
11204;DHT22;5659;49.408;11.116;2022-12-20T08:40:19;1.60;99.90
11204;DHT22;5659;49.408;11.116;2022-12-20T08:42:44;1.60;99.90
11204;DHT22;5659;49.408;11.116;2022-12-20T08:45:10;1.50;99.90
11204;DHT22;5659;49.408;11.116;2022-12-20T08:47:36;1.70;99.90
11204;DHT22;5659;49.408;11.116;2022-12-20T08:50:02;1.70;99.90
11204;DHT22;5659;49.408;11.116;2022-12-20T08:52:28;1.90;99.90
11204;DHT22;5659;49.408;11.116;2022-12-20T08:54:54;1.60;99.90
11204;DHT22;5659;49.408;11.116;2022-12-20T08:57:19;1.90;99.90
11204;DHT22;5659;49.408;11.116;2022-12-20T08:59:45;2.00;99.90
11204;DHT22;5659;49.408;11.116;2022-12-20T09:02:10;2.00;99.90
11204;DHT22;5659;49.408;11.116;2022-12-20T09:04:36;2.00;99.90
11204;DHT22;5659;49.408;11.116;2022-12-20T09:07:01;2.10;99.90
11204;DHT22;5659;49.408;11.116;2022-12-20T09:09:27;2.20;99.90
11204;DHT22;5659;49.408;11.116;2022-12-20T09:11:53;2.30;99.90
11204;DHT22;5659;49.408;11.116;2022-12-20T09:14:18;2.20;99.90
11204;DHT22;5659;49.408;11.116;2022-12-20T09:16:44;2.30;99.90
11204;DHT22;5659;49.408;11.116;2022-12-20T09:19:11;2.40;99.90
11204;DHT22;5659;49.408;11.116;2022-12-20T09:21:37;2.50;99.90
11204;DHT22;5659;49.408;11.116;2022-12-20T09:24:03;2.60;99.90
11204;DHT22;5659;49.408;11.116;2022-12-20T09:26:28;2.80;99.90
11204;DHT22;5659;49.408;11.116;2022-12-20T09:28:55;2.60;99.90
11204;DHT22;5659;49.408;11.116;2022-12-20T09:31:23;2.70;99.90
11204;DHT22;5659;49.408;11.116;2022-12-20T09:33:51;2.70;99.90
11204;DHT22;5659;49.408;11.116;2022-12-20T09:36:19;3.00;99.90
11204;DHT22;5659;49.408;11.116;2022-12-20T09:38:45;2.90;99.90
11204;DHT22;5659;49.408;11.116;2022-12-20T09:44:02;2.90;99.90
11204;DHT22;5659;49.408;11.116;2022-12-20T09:46:29;2.80;99.90
11204;DHT22;5659;49.408;11.116;2022-12-20T09:48:55;2.80;99.90
11204;DHT22;5659;49.408;11.116;2022-12-20T09:54:20;2.80;99.90
11204;DHT22;5659;49.408;11.116;2022-12-20T09:57:02;2.90;99.90
11204;DHT22;5659;49.408;11.116;2022-12-20T09:59:34;2.90;99.90
11204;DHT22;5659;49.408;11.116;2022-12-20T10:02:00;3.00;99.90
11204;DHT22;5659;49.408;11.116;2022-12-20T10:04:28;2.90;99.90
11204;DHT22;5659;49.408;11.116;2022-12-20T10:15:21;2.90;99.90
11204;DHT22;5659;49.408;11.116;2022-12-20T10:25:30;2.70;99.90
11204;DHT22;5659;49.408;11.116;2022-12-20T10:27:57;2.80;99.90
11204;DHT22;5659;49.408;11.116;2022-12-20T10:30:27;2.90;99.90
11204;DHT22;5659;49.408;11.116;2022-12-20T10:32:55;2.90;99.90
11204;DHT22;5659;49.408;11.116;2022-12-20T10:35:24;2.90;99.90
11204;DHT22;5659;49.408;11.116;2022-12-20T10:37:57;3.10;99.90
11204;DHT22;5659;49.408;11.116;2022-12-20T10:43:21;3.30;99.90
11204;DHT22;5659;49.408;11.116;2022-12-20T10:46:16;3.20;99.90
11204;DHT22;5659;49.408;11.116;2022-12-20T10:48:46;3.40;99.90
11204;DHT22;5659;49.408;11.116;2022-12-20T10:51:19;3.40;99.90
11204;DHT22;5659;49.408;11.116;2022-12-20T10:53:57;3.60;99.90
11204;DHT22;5659;49.408;11.116;2022-12-20T10:58:57;3.30;99.90
11204;DHT22;5659;49.408;11.116;2022-12-20T11:01:27;3.70;99.90
11204;DHT22;5659;49.408;11.116;2022-12-20T11:04:04;3.50;99.90
11204;DHT22;5659;49.408;11.116;2022-12-20T11:06:41;3.60;99.90
11204;DHT22;5659;49.408;11.116;2022-12-20T11:09:27;3.30;99.90
11204;DHT22;5659;49.408;11.116;2022-12-20T11:14:30;3.70;99.90
11204;DHT22;5659;49.408;11.116;2022-12-20T11:16:57;3.60;99.90
11204;DHT22;5659;49.408;11.116;2022-12-20T11:19:57;3.60;99.90
11204;DHT22;5659;49.408;11.116;2022-12-20T11:22:50;3.70;99.90
11204;DHT22;5659;49.408;11.116;2022-12-20T11:31:07;4.00;99.90
11204;DHT22;5659;49.408;11.116;2022-12-20T11:36:17;4.00;99.90
11204;DHT22;5659;49.408;11.116;2022-12-20T11:38:58;4.00;99.90
11204;DHT22;5659;49.408;11.116;2022-12-20T11:41:47;4.20;99.90
11204;DHT22;5659;49.408;11.116;2022-12-20T11:50:02;4.20;99.90
11204;DHT22;5659;49.408;11.116;2022-12-20T11:52:53;4.20;99.90
11204;DHT22;5659;49.408;11.116;2022-12-20T11:55:38;4.10;99.90
11204;DHT22;5659;49.408;11.116;2022-12-20T11:58:17;4.00;99.90
11204;DHT22;5659;49.408;11.116;2022-12-20T12:00:51;4.10;99.90
11204;DHT22;5659;49.408;11.116;2022-12-20T12:03:26;4.10;99.90
11204;DHT22;5659;49.408;11.116;2022-12-20T12:05:57;4.10;99.90
11204;DHT22;5659;49.408;11.116;2022-12-20T12:08:38;3.90;99.90
11204;DHT22;5659;49.408;11.116;2022-12-20T12:11:14;4.10;99.90
11204;DHT22;5659;49.408;11.116;2022-12-20T12:13:42;3.80;99.90
11204;DHT22;5659;49.408;11.116;2022-12-20T12:16:12;3.80;99.90
11204;DHT22;5659;49.408;11.116;2022-12-20T12:18:40;3.80;99.90
11204;DHT22;5659;49.408;11.116;2022-12-20T12:21:23;3.80;99.90
11204;DHT22;5659;49.408;11.116;2022-12-20T12:26:38;4.10;99.90
11204;DHT22;5659;49.408;11.116;2022-12-20T12:46:29;4.90;99.90
11204;DHT22;5659;49.408;11.116;2022-12-20T12:49:00;4.90;99.90
11204;DHT22;5659;49.408;11.116;2022-12-20T12:51:36;4.80;99.90
11204;DHT22;5659;49.408;11.116;2022-12-20T12:56:40;4.80;99.90
11204;DHT22;5659;49.408;11.116;2022-12-20T13:10:01;4.60;99.90
11204;DHT22;5659;49.408;11.116;2022-12-20T13:20:25;4.40;99.90
11204;DHT22;5659;49.408;11.116;2022-12-20T13:25:33;4.40;99.90
11204;DHT22;5659;49.408;11.116;2022-12-20T13:31:28;4.30;99.90
11204;DHT22;5659;49.408;11.116;2022-12-20T13:38:49;4.20;99.90
11204;DHT22;5659;49.408;11.116;2022-12-20T13:43:49;4.10;99.90
11204;DHT22;5659;49.408;11.116;2022-12-20T13:46:26;3.90;99.90
11204;DHT22;5659;49.408;11.116;2022-12-20T13:48:58;4.00;99.90
11204;DHT22;5659;49.408;11.116;2022-12-20T13:51:28;4.00;99.90
11204;DHT22;5659;49.408;11.116;2022-12-20T13:53:56;4.00;99.90
11204;DHT22;5659;49.408;11.116;2022-12-20T13:58:51;3.90;99.90
11204;DHT22;5659;49.408;11.116;2022-12-20T14:01:17;3.90;99.90
11204;DHT22;5659;49.408;11.116;2022-12-20T14:03:45;4.00;99.90
11204;DHT22;5659;49.408;11.116;2022-12-20T14:06:13;4.00;99.90
11204;DHT22;5659;49.408;11.116;2022-12-20T14:08:46;3.80;99.90
11204;DHT22;5659;49.408;11.116;2022-12-20T14:11:18;3.80;99.90
11204;DHT22;5659;49.408;11.116;2022-12-20T14:13:55;3.60;99.90
11204;DHT22;5659;49.408;11.116;2022-12-20T14:16:23;3.60;99.90
11204;DHT22;5659;49.408;11.116;2022-12-20T14:21:24;3.50;99.90
11204;DHT22;5659;49.408;11.116;2022-12-20T14:23:52;3.50;99.90
11204;DHT22;5659;49.408;11.116;2022-12-20T14:26:25;3.40;99.90
11204;DHT22;5659;49.408;11.116;2022-12-20T14:28:57;3.50;99.90
11204;DHT22;5659;49.408;11.116;2022-12-20T14:34:01;3.40;99.90
11204;DHT22;5659;49.408;11.116;2022-12-20T14:36:27;3.30;99.90
11204;DHT22;5659;49.408;11.116;2022-12-20T14:38:55;3.20;99.90
11204;DHT22;5659;49.408;11.116;2022-12-20T14:41:35;3.30;99.90
11204;DHT22;5659;49.408;11.116;2022-12-20T14:44:17;3.40;99.90
11204;DHT22;5659;49.408;11.116;2022-12-20T14:46:56;3.30;99.90
11204;DHT22;5659;49.408;11.116;2022-12-20T14:49:33;3.30;99.90
11204;DHT22;5659;49.408;11.116;2022-12-20T14:55:28;3.40;99.90
11204;DHT22;5659;49.408;11.116;2022-12-20T14:57:39;3.30;99.90
11204;DHT22;5659;49.408;11.116;2022-12-20T15:08:29;3.30;99.90
11204;DHT22;5659;49.408;11.116;2022-12-20T15:13:42;3.20;99.90
11204;DHT22;5659;49.408;11.116;2022-12-20T15:18:39;3.00;99.90
11204;DHT22;5659;49.408;11.116;2022-12-20T15:21:14;3.00;99.90
11204;DHT22;5659;49.408;11.116;2022-12-20T15:23:46;3.00;99.90
11204;DHT22;5659;49.408;11.116;2022-12-20T15:26:16;2.80;99.90
11204;DHT22;5659;49.408;11.116;2022-12-20T15:28:43;2.80;99.90
11204;DHT22;5659;49.408;11.116;2022-12-20T15:31:13;2.80;99.90
11204;DHT22;5659;49.408;11.116;2022-12-20T15:33:40;2.80;99.90
11204;DHT22;5659;49.408;11.116;2022-12-20T15:36:11;2.70;99.90
11204;DHT22;5659;49.408;11.116;2022-12-20T15:38:37;2.70;99.90
11204;DHT22;5659;49.408;11.116;2022-12-20T15:41:04;2.70;99.90
11204;DHT22;5659;49.408;11.116;2022-12-20T15:43:34;2.80;99.90
11204;DHT22;5659;49.408;11.116;2022-12-20T15:46:02;2.60;99.90
11204;DHT22;5659;49.408;11.116;2022-12-20T15:48:27;2.70;99.90
11204;DHT22;5659;49.408;11.116;2022-12-20T15:50:55;2.70;99.90
11204;DHT22;5659;49.408;11.116;2022-12-20T15:53:30;2.60;99.90
11204;DHT22;5659;49.408;11.116;2022-12-20T15:55:56;2.80;99.90
11204;DHT22;5659;49.408;11.116;2022-12-20T15:58:23;2.70;99.90
11204;DHT22;5659;49.408;11.116;2022-12-20T16:00:49;2.60;99.90
11204;DHT22;5659;49.408;11.116;2022-12-20T16:03:18;2.70;99.90
11204;DHT22;5659;49.408;11.116;2022-12-20T16:05:46;2.80;99.90
11204;DHT22;5659;49.408;11.116;2022-12-20T16:08:11;2.70;99.90
11204;DHT22;5659;49.408;11.116;2022-12-20T16:10:37;2.60;99.90
11204;DHT22;5659;49.408;11.116;2022-12-20T16:13:03;2.70;99.90
11204;DHT22;5659;49.408;11.116;2022-12-20T16:15:29;2.60;99.90
11204;DHT22;5659;49.408;11.116;2022-12-20T16:17:54;2.70;99.90
11204;DHT22;5659;49.408;11.116;2022-12-20T16:20:20;2.40;99.90
11204;DHT22;5659;49.408;11.116;2022-12-20T16:22:46;2.70;99.90
11204;DHT22;5659;49.408;11.116;2022-12-20T16:25:32;2.70;99.90
11204;DHT22;5659;49.408;11.116;2022-12-20T16:27:58;2.70;99.90
11204;DHT22;5659;49.408;11.116;2022-12-20T16:30:24;2.50;99.90
11204;DHT22;5659;49.408;11.116;2022-12-20T16:32:50;2.50;99.90
11204;DHT22;5659;49.408;11.116;2022-12-20T16:35:25;2.40;99.90
11204;DHT22;5659;49.408;11.116;2022-12-20T16:37:53;2.30;99.90
11204;DHT22;5659;49.408;11.116;2022-12-20T16:40:21;2.30;99.90
11204;DHT22;5659;49.408;11.116;2022-12-20T16:42:46;2.30;99.90
11204;DHT22;5659;49.408;11.116;2022-12-20T16:45:18;2.20;99.90
11204;DHT22;5659;49.408;11.116;2022-12-20T16:47:45;2.20;99.90
11204;DHT22;5659;49.408;11.116;2022-12-20T16:50:11;2.00;99.90
11204;DHT22;5659;49.408;11.116;2022-12-20T16:52:37;2.00;99.90
11204;DHT22;5659;49.408;11.116;2022-12-20T16:55:04;1.90;99.90
11204;DHT22;5659;49.408;11.116;2022-12-20T16:57:29;1.90;99.90
11204;DHT22;5659;49.408;11.116;2022-12-20T16:59:55;1.70;99.90
11204;DHT22;5659;49.408;11.116;2022-12-20T17:02:30;1.70;99.90
11204;DHT22;5659;49.408;11.116;2022-12-20T17:04:57;1.80;99.90
11204;DHT22;5659;49.408;11.116;2022-12-20T17:07:23;1.80;99.90
11204;DHT22;5659;49.408;11.116;2022-12-20T17:09:49;1.90;99.90
11204;DHT22;5659;49.408;11.116;2022-12-20T17:12:17;2.10;99.90
11204;DHT22;5659;49.408;11.116;2022-12-20T17:14:43;1.80;99.90
11204;DHT22;5659;49.408;11.116;2022-12-20T17:17:09;1.70;99.90
11204;DHT22;5659;49.408;11.116;2022-12-20T17:19:35;1.80;99.90
11204;DHT22;5659;49.408;11.116;2022-12-20T17:22:01;1.70;99.90
11204;DHT22;5659;49.408;11.116;2022-12-20T17:24:27;1.70;99.90
11204;DHT22;5659;49.408;11.116;2022-12-20T17:26:53;1.70;99.90
11204;DHT22;5659;49.408;11.116;2022-12-20T17:29:19;1.70;99.90
11204;DHT22;5659;49.408;11.116;2022-12-20T17:31:46;1.70;99.90
11204;DHT22;5659;49.408;11.116;2022-12-20T17:36:46;1.90;99.90
11204;DHT22;5659;49.408;11.116;2022-12-20T17:39:12;1.80;99.90
11204;DHT22;5659;49.408;11.116;2022-12-20T17:41:37;2.10;99.90
11204;DHT22;5659;49.408;11.116;2022-12-20T17:44:04;2.00;99.90
11204;DHT22;5659;49.408;11.116;2022-12-20T17:46:31;2.00;99.90
11204;DHT22;5659;49.408;11.116;2022-12-20T17:48:57;2.00;99.90
11204;DHT22;5659;49.408;11.116;2022-12-20T17:51:28;2.10;99.90
11204;DHT22;5659;49.408;11.116;2022-12-20T17:53:58;2.00;99.90
11204;DHT22;5659;49.408;11.116;2022-12-20T17:56:27;2.00;99.90
11204;DHT22;5659;49.408;11.116;2022-12-20T17:58:54;2.00;99.90
11204;DHT22;5659;49.408;11.116;2022-12-20T18:01:22;2.00;99.90
11204;DHT22;5659;49.408;11.116;2022-12-20T18:03:49;2.00;99.90
11204;DHT22;5659;49.408;11.116;2022-12-20T18:06:15;2.10;99.90
11204;DHT22;5659;49.408;11.116;2022-12-20T18:08:41;2.10;99.90
11204;DHT22;5659;49.408;11.116;2022-12-20T18:11:08;2.10;99.90
11204;DHT22;5659;49.408;11.116;2022-12-20T18:13:34;2.10;99.90
11204;DHT22;5659;49.408;11.116;2022-12-20T18:16:04;2.10;99.90
11204;DHT22;5659;49.408;11.116;2022-12-20T18:18:30;2.10;99.90